createdAt,value
2019-03-17T00:01:23.460Z,65.25
2019-03-17T00:03:54.120Z,65.07
2019-03-17T00:06:37.100Z,65.37
2019-03-17T00:09:07.944Z,65.05
2019-03-17T00:11:42.559Z,64.88
2019-03-17T00:14:13.480Z,65.24
2019-03-17T00:16:44.241Z,65.06
2019-03-17T00:19:14.993Z,65.17
2019-03-17T00:21:45.855Z,65.04
2019-03-17T00:24:17.891Z,65.17
2019-03-17T00:26:48.621Z,65.17
2019-03-17T00:29:19.306Z,65.06
2019-03-17T00:31:50.143Z,64.63
2019-03-17T00:34:24.651Z,64.73
2019-03-17T00:36:55.354Z,65.03
2019-03-17T00:39:26.092Z,64.65
2019-03-17T00:41:56.696Z,65.02
2019-03-17T00:44:33.488Z,64.66
2019-03-17T00:47:11.912Z,64.99
2019-03-17T00:49:42.777Z,64.92
2019-03-17T00:52:13.467Z,65.30
2019-03-17T00:55:02.065Z,65.32
2019-03-17T00:57:40.034Z,64.89
2019-03-17T01:00:12.084Z,65.10
2019-03-17T01:02:42.570Z,65.36
2019-03-17T01:05:25.122Z,65.62
2019-03-17T01:07:55.963Z,65.53
2019-03-17T01:10:36.701Z,65.72
2019-03-17T01:13:14.636Z,65.37
2019-03-17T01:15:45.323Z,65.57
2019-03-17T01:18:17.096Z,65.84
2019-03-17T01:20:48.820Z,65.66
2019-03-17T01:23:19.478Z,65.20
2019-03-17T01:26:14.601Z,65.34
2019-03-17T01:29:02.031Z,65.07
2019-03-17T01:31:36.027Z,64.79
2019-03-17T01:34:06.698Z,64.82
2019-03-17T01:36:37.182Z,64.61
2019-03-17T01:39:08.067Z,64.93
2019-03-17T01:41:38.654Z,65.30
2019-03-17T01:44:09.220Z,64.78
2019-03-17T01:46:39.817Z,65.31
2019-03-17T01:49:10.475Z,65.06
2019-03-17T01:51:41.058Z,64.63
2019-03-17T01:54:11.647Z,65.00
2019-03-17T01:56:42.322Z,65.11
2019-03-17T01:59:12.893Z,65.27
2019-03-17T02:01:43.561Z,65.94
2019-03-17T02:04:14.160Z,65.51
2019-03-17T02:06:45.771Z,65.71
2019-03-17T02:09:16.418Z,65.68
2019-03-17T02:11:50.207Z,65.76
2019-03-17T02:14:20.771Z,65.93
2019-03-17T02:16:52.558Z,65.71
2019-03-17T02:19:23.194Z,65.91
2019-03-17T02:21:53.877Z,65.69
2019-03-17T02:24:24.359Z,65.79
2019-03-17T02:26:55.053Z,65.78
2019-03-17T02:29:25.669Z,65.94
2019-03-17T02:32:02.551Z,65.81
2019-03-17T02:34:33.050Z,66.04
2019-03-17T02:37:21.635Z,66.09
2019-03-17T02:39:52.231Z,66.60
2019-03-17T02:42:22.875Z,66.67
2019-03-17T02:44:53.336Z,66.45
2019-03-17T02:47:23.925Z,66.44
2019-03-17T02:49:54.597Z,66.75
2019-03-17T02:52:30.814Z,66.92
2019-03-17T02:55:01.415Z,66.79
2019-03-17T02:57:31.985Z,66.39
2019-03-17T03:00:02.570Z,66.41
2019-03-17T03:02:33.154Z,66.61
2019-03-17T03:05:04.123Z,65.61
2019-03-17T03:07:35.134Z,65.53
2019-03-17T03:10:05.869Z,65.38
2019-03-17T03:12:36.524Z,64.77
2019-03-17T03:15:22.678Z,64.18
2019-03-17T03:17:53.242Z,62.43
2019-03-17T03:20:23.760Z,62.40
2019-03-17T03:22:54.375Z,61.10
2019-03-17T03:25:25.166Z,61.35
2019-03-17T03:28:00.700Z,61.81
2019-03-17T03:30:35.789Z,62.31
2019-03-17T03:33:06.436Z,63.78
2019-03-17T03:35:46.489Z,64.56
2019-03-17T03:38:43.085Z,65.57
2019-03-17T03:41:13.660Z,65.79
2019-03-17T03:43:44.476Z,65.64
2019-03-17T03:46:15.167Z,65.98
2019-03-17T03:48:45.751Z,65.65
2019-03-17T03:51:16.397Z,66.74
2019-03-17T03:53:56.391Z,67.24
2019-03-17T03:56:39.348Z,68.39
2019-03-17T03:59:09.968Z,69.05
2019-03-17T04:01:40.579Z,69.35
2019-03-17T04:04:11.239Z,70.18
2019-03-17T04:06:41.802Z,71.67
2019-03-17T04:09:12.497Z,72.60
2019-03-17T04:11:43.114Z,73.19
2019-03-17T04:14:13.777Z,74.27
2019-03-17T04:16:44.399Z,75.42
2019-03-17T04:19:14.981Z,75.25
2019-03-17T04:21:45.562Z,74.67
2019-03-17T04:24:16.245Z,74.58
2019-03-17T04:26:52.921Z,74.46
2019-03-17T04:29:23.483Z,73.42
2019-03-17T04:31:54.073Z,72.97
2019-03-17T04:34:24.642Z,71.96
2019-03-17T04:36:55.308Z,71.11
2019-03-17T04:39:25.901Z,70.46
2019-03-17T04:41:56.475Z,71.30
2019-03-17T04:44:27.030Z,71.49
2019-03-17T04:46:57.621Z,71.93
2019-03-17T04:49:29.170Z,73.18
2019-03-17T04:51:59.790Z,73.88
2019-03-17T04:54:30.666Z,73.79
2019-03-17T04:57:01.234Z,74.62
2019-03-17T04:59:53.252Z,74.87
2019-03-17T05:02:29.793Z,75.33
2019-03-17T05:05:00.437Z,76.51
2019-03-17T05:07:31.044Z,76.50
2019-03-17T05:10:01.691Z,78.07
2019-03-17T05:12:32.313Z,77.64
2019-03-17T05:15:02.817Z,78.08
2019-03-17T05:17:33.444Z,78.44
2019-03-17T05:20:47.363Z,79.29
2019-03-17T05:23:27.263Z,79.13
2019-03-17T05:25:57.885Z,80.04
2019-03-17T05:28:28.418Z,80.86
2019-03-17T05:30:59.115Z,80.67
2019-03-17T05:33:29.607Z,81.09
2019-03-17T05:36:03.766Z,81.54
2019-03-17T05:38:39.557Z,81.96
2019-03-17T05:41:10.201Z,82.11
2019-03-17T05:43:40.786Z,82.71
2019-03-17T05:46:11.407Z,81.99
2019-03-17T05:48:47.499Z,81.88
2019-03-17T05:51:18.060Z,82.31
2019-03-17T05:53:51.836Z,82.19
2019-03-17T05:56:44.352Z,82.23
2019-03-17T05:59:15.149Z,82.28
2019-03-17T06:01:54.913Z,83.00
2019-03-17T06:04:25.551Z,82.71
2019-03-17T06:06:56.074Z,83.38
2019-03-17T06:09:26.656Z,83.15
2019-03-17T06:11:57.245Z,83.40
2019-03-17T06:14:27.993Z,82.63
2019-03-17T06:16:59.623Z,82.81
2019-03-17T06:19:31.149Z,82.75
2019-03-17T06:22:03.884Z,83.41
2019-03-17T06:24:34.614Z,83.07
2019-03-17T06:27:05.325Z,83.04
2019-03-17T06:29:40.111Z,83.16
2019-03-17T06:32:10.726Z,83.36
2019-03-17T06:34:41.375Z,83.10
2019-03-17T06:37:12.148Z,83.34
2019-03-17T06:39:42.870Z,83.18
2019-03-17T06:42:13.465Z,83.69
2019-03-17T06:44:44.128Z,83.71
2019-03-17T06:47:15.816Z,83.47
2019-03-17T06:49:46.556Z,83.80
2019-03-17T06:52:26.524Z,83.48
2019-03-17T06:54:57.195Z,83.41
2019-03-17T06:57:33.988Z,83.42
2019-03-17T07:00:10.736Z,83.45
2019-03-17T07:02:41.326Z,83.13
2019-03-17T07:05:14.028Z,83.62
2019-03-17T07:07:44.987Z,83.84
2019-03-17T07:10:23.813Z,84.55
2019-03-17T07:12:54.502Z,84.27
2019-03-17T07:15:25.426Z,84.00
2019-03-17T07:18:02.951Z,82.91
2019-03-17T07:20:37.161Z,83.11
2019-03-17T07:23:07.850Z,82.29
2019-03-17T07:26:00.297Z,82.27
2019-03-17T07:28:30.956Z,78.09
2019-03-17T07:31:01.698Z,77.09
2019-03-17T07:33:53.668Z,78.11
2019-03-17T07:36:24.263Z,78.86
2019-03-17T07:38:54.890Z,77.74
2019-03-17T07:41:27.494Z,79.12
2019-03-17T07:43:58.109Z,78.98
2019-03-17T07:46:42.509Z,78.51
2019-03-17T07:49:13.087Z,79.25
2019-03-17T07:51:43.717Z,78.42
2019-03-17T07:54:14.386Z,77.29
2019-03-17T07:56:45.075Z,78.91
2019-03-17T07:59:15.736Z,78.93
2019-03-17T08:01:46.399Z,77.28
2019-03-17T08:04:17.100Z,78.71
2019-03-17T08:06:56.786Z,77.42
2019-03-17T08:09:50.947Z,77.13
2019-03-17T08:12:24.595Z,78.40
2019-03-17T08:15:01.213Z,77.85
2019-03-17T08:17:32.965Z,76.76
2019-03-17T08:20:03.649Z,77.43
2019-03-17T08:22:39.139Z,77.73
2019-03-17T08:25:09.835Z,77.74
2019-03-17T08:27:41.509Z,75.66
2019-03-17T08:30:12.293Z,76.96
2019-03-17T08:32:42.977Z,78.09
2019-03-17T08:35:14.799Z,77.15
2019-03-17T08:37:45.606Z,77.08
2019-03-17T08:40:22.753Z,77.34
2019-03-17T08:43:10.682Z,75.98
2019-03-17T08:45:42.466Z,76.32
2019-03-17T08:48:13.069Z,77.31
2019-03-17T08:50:44.749Z,77.24
2019-03-17T08:53:15.323Z,78.49
2019-03-17T08:55:46.064Z,76.75
2019-03-17T08:58:16.744Z,76.09
2019-03-17T09:00:58.375Z,77.62
2019-03-17T09:03:28.952Z,76.37
2019-03-17T09:06:02.836Z,76.82
2019-03-17T09:08:35.339Z,76.11
2019-03-17T09:11:18.622Z,76.07
2019-03-17T09:13:49.250Z,76.98
2019-03-17T09:16:24.488Z,76.71
2019-03-17T09:19:01.269Z,75.45
2019-03-17T09:21:31.958Z,76.17
2019-03-17T09:24:16.302Z,74.89
2019-03-17T09:26:43.669Z,76.26
2019-03-17T09:29:20.227Z,76.18
2019-03-17T09:31:51.997Z,76.77
2019-03-17T09:34:22.681Z,77.88
2019-03-17T09:36:58.925Z,76.64
2019-03-17T09:39:29.494Z,76.53
2019-03-17T09:42:00.264Z,77.39
2019-03-17T09:44:33.096Z,76.14
2019-03-17T09:47:04.851Z,75.88
2019-03-17T09:49:36.532Z,76.63
2019-03-17T09:52:08.131Z,75.96
2019-03-17T09:54:38.724Z,77.45
2019-03-17T09:57:09.756Z,78.42
2019-03-17T09:59:40.398Z,77.91
2019-03-17T10:02:11.164Z,78.03
2019-03-17T10:04:43.739Z,78.67
2019-03-17T10:07:14.881Z,78.80
2019-03-17T10:09:51.746Z,77.73
2019-03-17T10:12:25.493Z,76.80
2019-03-17T10:14:56.203Z,73.92
2019-03-17T10:17:26.960Z,74.96
2019-03-17T10:19:57.763Z,76.32
2019-03-17T10:22:28.489Z,77.06
2019-03-17T10:24:59.210Z,76.34
2019-03-17T10:27:29.890Z,77.91
2019-03-17T10:30:00.578Z,77.48
2019-03-17T10:32:33.442Z,78.75
2019-03-17T10:35:04.335Z,78.23
2019-03-17T10:37:38.525Z,78.88
2019-03-17T10:40:11.935Z,79.76
2019-03-17T10:42:43.642Z,80.21
2019-03-17T10:45:15.748Z,80.51
2019-03-17T10:47:46.565Z,79.29
2019-03-17T10:50:17.349Z,78.46
2019-03-17T10:52:59.459Z,78.12
2019-03-17T10:55:30.136Z,77.05
2019-03-17T10:58:01.885Z,77.25
2019-03-17T11:00:35.709Z,76.35
2019-03-17T11:03:06.469Z,74.55
2019-03-17T11:05:37.180Z,72.38
2019-03-17T11:08:07.885Z,73.09
2019-03-17T11:10:46.789Z,71.83
2019-03-17T11:13:17.542Z,73.03
2019-03-17T11:15:51.444Z,72.50
2019-03-17T11:18:27.447Z,73.12
2019-03-17T11:21:05.390Z,71.51
2019-03-17T11:23:38.273Z,70.28
2019-03-17T11:26:18.675Z,70.66
2019-03-17T11:29:00.699Z,71.88
2019-03-17T11:31:32.498Z,70.92
2019-03-17T11:34:03.526Z,72.38
2019-03-17T11:36:39.499Z,70.98
2019-03-17T11:39:20.591Z,70.62
2019-03-17T11:41:55.908Z,71.79
2019-03-17T11:44:27.772Z,71.16
2019-03-17T11:47:04.553Z,71.53
2019-03-17T11:49:40.553Z,70.71
2019-03-17T11:52:15.808Z,69.24
2019-03-17T11:54:47.812Z,70.39
2019-03-17T11:57:19.922Z,67.98
2019-03-17T11:59:51.512Z,68.42
2019-03-17T12:02:26.780Z,66.36
2019-03-17T12:04:56.831Z,66.44
2019-03-17T12:07:30.298Z,62.66
2019-03-17T12:10:01.509Z,60.99
2019-03-17T12:12:37.366Z,61.93
2019-03-17T12:15:10.204Z,59.04
2019-03-17T12:17:41.139Z,56.94
2019-03-17T12:20:15.152Z,55.12
2019-03-17T12:22:46.457Z,56.96
2019-03-17T12:25:19.118Z,55.48
2019-03-17T12:28:01.948Z,58.45
2019-03-17T12:30:34.314Z,58.99
2019-03-17T12:33:07.205Z,55.85
2019-03-17T12:35:37.910Z,56.28
2019-03-17T12:38:09.768Z,56.89
2019-03-17T12:40:45.228Z,57.09
2019-03-17T12:43:26.996Z,56.96
2019-03-17T12:45:57.679Z,55.63
2019-03-17T12:48:28.580Z,56.22
2019-03-17T12:50:59.562Z,55.97
2019-03-17T12:53:30.307Z,56.30
2019-03-17T12:56:05.067Z,58.65
2019-03-17T12:58:37.803Z,58.07
2019-03-17T13:01:08.488Z,56.84
2019-03-17T13:03:40.250Z,55.52
2019-03-17T13:06:12.337Z,54.95
2019-03-17T13:08:44.732Z,56.16
2019-03-17T13:11:15.231Z,55.66
2019-03-17T13:13:47.916Z,55.92
2019-03-17T13:16:18.647Z,56.42
2019-03-17T13:18:50.449Z,61.08
2019-03-17T13:21:42.458Z,63.13
2019-03-17T13:24:23.566Z,64.09
2019-03-17T13:26:58.768Z,67.64
2019-03-17T13:29:36.526Z,66.87
2019-03-17T13:32:11.395Z,68.36
2019-03-17T13:34:42.562Z,65.56
2019-03-17T13:37:23.455Z,64.78
2019-03-17T13:39:57.988Z,66.39
2019-03-17T13:42:36.632Z,65.48
2019-03-17T13:45:07.726Z,65.20
2019-03-17T13:47:39.554Z,68.87
2019-03-17T13:50:12.878Z,69.35
2019-03-17T13:52:43.560Z,69.22
2019-03-17T13:55:18.825Z,68.19
2019-03-17T13:57:52.291Z,70.71
2019-03-17T14:00:23.037Z,69.92
2019-03-17T14:02:53.735Z,71.55
2019-03-17T14:05:33.725Z,70.45
2019-03-17T14:08:15.763Z,68.48
2019-03-17T14:10:50.875Z,68.81
2019-03-17T14:13:21.509Z,65.60
2019-03-17T14:16:12.105Z,67.30
2019-03-17T14:18:42.871Z,68.90
2019-03-17T14:21:13.574Z,69.60
2019-03-17T14:23:50.173Z,68.34
2019-03-17T14:26:32.770Z,65.45
2019-03-17T14:29:03.716Z,62.74
2019-03-17T14:31:34.413Z,63.30
2019-03-17T14:34:07.236Z,63.69
2019-03-17T14:36:39.874Z,63.00
2019-03-17T14:39:24.051Z,61.34
2019-03-17T14:41:54.827Z,61.93
2019-03-17T14:44:33.677Z,61.46
2019-03-17T14:47:04.489Z,61.07
2019-03-17T14:49:36.177Z,60.22
2019-03-17T14:52:06.953Z,61.08
2019-03-17T14:54:37.610Z,63.21
2019-03-17T14:57:09.170Z,60.50
2019-03-17T14:59:42.012Z,60.41
2019-03-17T15:02:19.795Z,62.54
2019-03-17T15:04:51.964Z,59.90
2019-03-17T15:07:23.059Z,62.48
2019-03-17T15:09:54.800Z,61.70
2019-03-17T15:12:25.596Z,59.80
2019-03-17T15:15:08.798Z,60.80
2019-03-17T15:17:40.535Z,62.96
2019-03-17T15:20:14.234Z,61.48
2019-03-17T15:22:51.768Z,60.75
2019-03-17T15:25:24.627Z,59.69
2019-03-17T15:27:58.167Z,60.01
2019-03-17T15:30:28.966Z,59.23
2019-03-17T15:33:00.917Z,61.17
2019-03-17T15:35:37.289Z,59.23
2019-03-17T15:38:23.515Z,59.12
2019-03-17T15:40:54.304Z,60.71
2019-03-17T15:43:30.880Z,61.00
2019-03-17T15:46:05.921Z,60.72
2019-03-17T15:48:40.844Z,60.78
2019-03-17T15:51:20.390Z,61.45
2019-03-17T15:53:45.135Z,62.07
2019-03-17T15:56:16.064Z,61.90
2019-03-17T15:58:47.150Z,60.62
2019-03-17T16:01:18.170Z,61.06
2019-03-17T16:03:48.908Z,60.88
2019-03-17T16:06:19.970Z,59.75
2019-03-17T16:09:08.532Z,60.79
2019-03-17T16:12:04.989Z,59.32
2019-03-17T16:14:38.962Z,61.96
2019-03-17T16:17:09.667Z,59.71
2019-03-17T16:19:40.422Z,61.27
2019-03-17T16:22:11.132Z,59.41
2019-03-17T16:24:45.272Z,60.09
2019-03-17T16:27:16.001Z,61.34
2019-03-17T16:29:51.493Z,63.35
2019-03-17T16:32:23.125Z,63.28
2019-03-17T16:34:53.873Z,62.76
2019-03-17T16:37:29.576Z,63.90
2019-03-17T16:40:03.813Z,62.23
2019-03-17T16:42:53.560Z,63.37
2019-03-17T16:45:25.192Z,62.30
2019-03-17T16:48:01.784Z,64.11
2019-03-17T16:50:37.076Z,62.87
2019-03-17T16:53:08.828Z,62.85
2019-03-17T16:55:41.607Z,61.77
2019-03-17T16:58:13.324Z,61.78
2019-03-17T17:00:55.052Z,63.46
2019-03-17T17:03:47.129Z,63.52
2019-03-17T17:06:23.737Z,62.39
2019-03-17T17:08:54.450Z,62.79
2019-03-17T17:11:25.253Z,62.20
2019-03-17T17:13:57.981Z,61.98
2019-03-17T17:16:33.061Z,61.63
2019-03-17T17:19:06.030Z,62.38
2019-03-17T17:21:37.883Z,62.92
2019-03-17T17:24:08.674Z,63.50
2019-03-17T17:26:43.994Z,65.05
2019-03-17T17:29:30.022Z,63.10
2019-03-17T17:32:25.382Z,63.10
2019-03-17T17:34:56.109Z,64.21
2019-03-17T17:37:26.835Z,63.72
2019-03-17T17:39:57.582Z,63.08
2019-03-17T17:42:35.474Z,64.17
2019-03-17T17:45:08.190Z,63.69
2019-03-17T17:47:42.128Z,64.24
2019-03-17T17:50:14.646Z,65.54
2019-03-17T17:52:52.474Z,65.07
2019-03-17T17:55:31.401Z,66.09
2019-03-17T17:58:07.442Z,65.51
2019-03-17T18:00:39.791Z,64.02
2019-03-17T18:03:10.499Z,63.89
2019-03-17T18:05:41.290Z,61.09
2019-03-17T18:08:12.942Z,61.17
2019-03-17T18:10:47.172Z,62.15
2019-03-17T18:13:32.093Z,62.05
2019-03-17T18:16:03.073Z,61.82
2019-03-17T18:18:35.817Z,61.79
2019-03-17T18:21:08.616Z,61.62
2019-03-17T18:23:39.442Z,63.35
2019-03-17T18:26:16.608Z,64.94
2019-03-17T18:28:47.716Z,65.72
2019-03-17T18:31:29.591Z,65.37
2019-03-17T18:34:02.543Z,66.09
2019-03-17T18:36:34.361Z,66.62
2019-03-17T18:39:10.307Z,66.92
2019-03-17T18:41:47.213Z,66.84
2019-03-17T18:44:19.023Z,66.59
2019-03-17T18:46:49.827Z,66.02
2019-03-17T18:49:28.893Z,64.88
2019-03-17T18:51:59.684Z,64.71
2019-03-17T18:54:30.427Z,63.26
2019-03-17T18:57:03.303Z,63.88
2019-03-17T18:59:37.202Z,63.77
2019-03-17T19:02:08.907Z,61.33
2019-03-17T19:04:39.615Z,62.35
2019-03-17T19:07:10.438Z,62.16
2019-03-17T19:09:51.318Z,61.86
2019-03-17T19:12:23.144Z,62.25
2019-03-17T19:14:59.033Z,62.84
2019-03-17T19:17:31.193Z,63.28
2019-03-17T19:20:02.214Z,62.59
2019-03-17T19:22:36.044Z,62.85
2019-03-17T19:25:07.698Z,63.72
2019-03-17T19:27:40.543Z,63.16
2019-03-17T19:30:17.607Z,63.54
2019-03-17T19:32:48.471Z,64.84
2019-03-17T19:35:19.408Z,64.59
2019-03-17T19:38:04.420Z,67.80
2019-03-17T19:40:35.425Z,69.99
2019-03-17T19:43:06.232Z,71.51
2019-03-17T19:45:37.169Z,72.82
2019-03-17T19:48:15.032Z,72.96
2019-03-17T19:50:46.074Z,71.11
2019-03-17T19:53:22.788Z,71.17
2019-03-17T19:55:53.566Z,71.63
2019-03-17T19:58:29.678Z,70.28
2019-03-17T20:01:17.108Z,70.58
2019-03-17T20:03:52.417Z,70.09
2019-03-17T20:06:27.249Z,70.85
2019-03-17T20:08:58.051Z,70.64
2019-03-17T20:11:28.826Z,69.21
2019-03-17T20:14:00.641Z,69.78
2019-03-17T20:16:33.330Z,70.10
2019-03-17T20:19:11.432Z,69.18
2019-03-17T20:21:42.199Z,68.14
2019-03-17T20:24:13.020Z,68.80
2019-03-17T20:26:46.947Z,68.26
2019-03-17T20:29:17.698Z,68.88
2019-03-17T20:31:48.395Z,70.37
2019-03-17T20:34:19.127Z,69.81
2019-03-17T20:36:49.700Z,70.52
2019-03-17T20:39:20.293Z,71.50
2019-03-17T20:42:06.152Z,71.31
2019-03-17T20:44:42.274Z,71.41
2019-03-17T20:47:13.984Z,71.72
2019-03-17T20:49:52.700Z,71.65
2019-03-17T20:52:23.405Z,70.85
2019-03-17T20:55:00.553Z,71.88
2019-03-17T20:57:34.344Z,70.86
2019-03-17T21:00:11.063Z,71.90
2019-03-17T21:02:43.758Z,71.89
2019-03-17T21:05:17.607Z,71.77
2019-03-17T21:07:48.534Z,70.97
2019-03-17T21:10:19.303Z,69.44
2019-03-17T21:12:50.978Z,69.81
2019-03-17T21:15:23.683Z,70.60
2019-03-17T21:17:54.678Z,70.17
2019-03-17T21:20:25.440Z,70.42
2019-03-17T21:22:56.135Z,71.87
2019-03-17T21:25:26.842Z,71.46
2019-03-17T21:28:08.629Z,71.28
2019-03-17T21:30:41.373Z,70.31
2019-03-17T21:33:12.354Z,70.61
2019-03-17T21:35:42.999Z,70.69
2019-03-17T21:38:13.727Z,70.73
2019-03-17T21:41:05.721Z,72.06
2019-03-17T21:43:16.702Z,71.21
2019-03-17T21:45:49.352Z,70.56
2019-03-17T21:48:19.907Z,70.05
2019-03-17T21:50:55.525Z,70.12
2019-03-17T21:53:44.422Z,70.11
2019-03-17T21:56:22.300Z,70.53
2019-03-17T21:59:03.216Z,70.72
2019-03-17T22:01:33.939Z,70.51
2019-03-17T22:04:09.622Z,70.99
2019-03-17T22:06:40.353Z,70.47
2019-03-17T22:09:17.501Z,71.15
2019-03-17T22:11:48.264Z,71.26
2019-03-17T22:14:19.010Z,71.67
2019-03-17T22:16:49.744Z,71.44
2019-03-17T22:19:20.439Z,70.91
2019-03-17T22:21:52.091Z,71.61
2019-03-17T22:24:31.613Z,71.71
2019-03-17T22:27:05.693Z,71.33
2019-03-17T22:29:46.462Z,71.60
2019-03-17T22:32:17.179Z,71.32
2019-03-17T22:34:53.762Z,71.75
2019-03-17T22:37:27.791Z,72.47
2019-03-17T22:39:58.480Z,72.06
2019-03-17T22:42:31.228Z,72.35
2019-03-17T22:45:02.753Z,71.71
2019-03-17T22:47:33.601Z,72.47
2019-03-17T22:50:04.764Z,72.33
2019-03-17T22:52:45.317Z,72.93
2019-03-17T22:55:17.011Z,73.14
2019-03-17T22:57:49.886Z,73.26
2019-03-17T23:00:33.715Z,71.92
2019-03-17T23:03:06.159Z,72.35
2019-03-17T23:05:37.186Z,72.98
2019-03-17T23:08:07.866Z,72.79
2019-03-17T23:10:43.556Z,72.23
2019-03-17T23:13:20.218Z,73.20
2019-03-17T23:15:50.991Z,73.30
2019-03-17T23:18:21.673Z,74.39
2019-03-17T23:20:53.458Z,74.07
2019-03-17T23:23:24.105Z,74.17
2019-03-17T23:25:54.771Z,74.07
2019-03-17T23:28:25.255Z,73.72
2019-03-17T23:31:01.322Z,73.87
2019-03-17T23:33:31.963Z,73.84
2019-03-17T23:36:02.558Z,74.09
2019-03-17T23:38:38.538Z,73.41
2019-03-17T23:41:09.077Z,72.71
2019-03-17T23:43:39.625Z,72.88
2019-03-17T23:46:12.372Z,73.22
2019-03-17T23:48:43.075Z,72.91
2019-03-17T23:51:13.740Z,72.77
2019-03-17T23:53:44.341Z,72.98
2019-03-17T23:56:15.087Z,72.95
2019-03-17T23:58:45.717Z,73.28
